sensor_id;sensor_type;location;lat;lon;timestamp;pressure;altitude;pressure_sealevel;temperature;humidity
22830;BME280;11581;51.250;6.778;2023-05-10T00:01:55;100382.75;;;16.33;75.58
22830;BME280;11581;51.250;6.778;2023-05-10T00:04:22;100405.66;;;16.43;75.65
22830;BME280;11581;51.250;6.778;2023-05-10T00:06:52;100411.06;;;16.43;75.66
22830;BME280;11581;51.250;6.778;2023-05-10T00:09:19;100411.22;;;16.42;75.81
22830;BME280;11581;51.250;6.778;2023-05-10T00:11:45;100408.09;;;16.38;76.06
22830;BME280;11581;51.250;6.778;2023-05-10T00:14:12;100314.00;;;15.82;75.88
22830;BME280;11581;51.250;6.778;2023-05-10T00:16:38;100414.75;;;16.42;75.98
22830;BME280;11581;51.250;6.778;2023-05-10T00:19:05;100389.44;;;16.37;76.08
22830;BME280;11581;51.250;6.778;2023-05-10T00:21:31;100404.81;;;16.43;76.08
22830;BME280;11581;51.250;6.778;2023-05-10T00:23:59;100407.50;;;16.43;76.19
22830;BME280;11581;51.250;6.778;2023-05-10T00:26:25;100341.06;;;16.01;76.28
22830;BME280;11581;51.250;6.778;2023-05-10T00:28:54;100378.78;;;16.29;76.11
22830;BME280;11581;51.250;6.778;2023-05-10T00:31:20;100386.03;;;16.28;76.16
22830;BME280;11581;51.250;6.778;2023-05-10T00:33:47;100377.91;;;16.22;76.25
22830;BME280;11581;51.250;6.778;2023-05-10T00:36:13;100346.16;;;16.11;76.32
22830;BME280;11581;51.250;6.778;2023-05-10T00:38:40;100402.78;;;16.45;76.44
22830;BME280;11581;51.250;6.778;2023-05-10T00:41:06;100340.78;;;16.11;76.59
22830;BME280;11581;51.250;6.778;2023-05-10T00:43:35;100404.06;;;16.49;76.69
22830;BME280;11581;51.250;6.778;2023-05-10T00:46:03;100407.41;;;16.51;76.86
22830;BME280;11581;51.250;6.778;2023-05-10T00:48:31;100378.69;;;16.37;76.71
22830;BME280;11581;51.250;6.778;2023-05-10T00:50:58;100380.34;;;16.38;76.39
22830;BME280;11581;51.250;6.778;2023-05-10T00:53:24;100336.41;;;16.10;76.39
22830;BME280;11581;51.250;6.778;2023-05-10T00:55:51;100413.28;;;16.61;76.38
22830;BME280;11581;51.250;6.778;2023-05-10T00:58:18;100414.94;;;16.62;76.49
22830;BME280;11581;51.250;6.778;2023-05-10T01:00:46;100355.41;;;16.29;76.33
22830;BME280;11581;51.250;6.778;2023-05-10T01:03:12;100410.84;;;16.66;75.89
22830;BME280;11581;51.250;6.778;2023-05-10T01:05:39;100320.25;;;16.10;75.57
22830;BME280;11581;51.250;6.778;2023-05-10T01:08:06;100433.00;;;16.68;75.23
22830;BME280;11581;51.250;6.778;2023-05-10T01:10:33;100265.91;;;15.72;74.99
22830;BME280;11581;51.250;6.778;2023-05-10T01:15:58;100414.56;;;16.65;74.74
22830;BME280;11581;51.250;6.778;2023-05-10T01:18:27;100416.63;;;16.63;74.69
22830;BME280;11581;51.250;6.778;2023-05-10T01:24:05;100425.47;;;16.57;74.94
22830;BME280;11581;51.250;6.778;2023-05-10T01:29:44;100431.44;;;16.52;74.70
22830;BME280;11581;51.250;6.778;2023-05-10T01:34:52;100426.44;;;16.49;74.84
22830;BME280;11581;51.250;6.778;2023-05-10T01:37:28;100423.94;;;16.48;74.96
22830;BME280;11581;51.250;6.778;2023-05-10T01:40:02;100431.34;;;16.46;74.94
22830;BME280;11581;51.250;6.778;2023-05-10T01:42:37;100417.50;;;16.28;75.22
22830;BME280;11581;51.250;6.778;2023-05-10T01:45:14;100433.44;;;16.44;75.18
22830;BME280;11581;51.250;6.778;2023-05-10T01:47:44;100384.63;;;16.11;74.64
22830;BME280;11581;51.250;6.778;2023-05-10T01:50:19;100438.13;;;16.42;75.07
22830;BME280;11581;51.250;6.778;2023-05-10T01:52:53;100418.91;;;16.24;75.32
22830;BME280;11581;51.250;6.778;2023-05-10T01:55:24;100438.50;;;16.39;74.84
22830;BME280;11581;51.250;6.778;2023-05-10T01:57:58;100375.84;;;16.03;74.82
22830;BME280;11581;51.250;6.778;2023-05-10T02:00:27;100402.88;;;16.16;74.43
22830;BME280;11581;51.250;6.778;2023-05-10T02:02:55;100418.66;;;16.19;74.60
22830;BME280;11581;51.250;6.778;2023-05-10T02:05:22;100423.25;;;16.25;74.83
22830;BME280;11581;51.250;6.778;2023-05-10T02:07:51;100412.50;;;16.25;74.82
22830;BME280;11581;51.250;6.778;2023-05-10T02:10:18;100433.28;;;16.31;75.06
22830;BME280;11581;51.250;6.778;2023-05-10T02:12:47;100381.22;;;16.03;75.02
22830;BME280;11581;51.250;6.778;2023-05-10T02:15:18;100430.56;;;16.31;75.31
22830;BME280;11581;51.250;6.778;2023-05-10T02:17:46;100409.91;;;16.17;75.02
22830;BME280;11581;51.250;6.778;2023-05-10T02:20:16;100428.69;;;16.31;75.18
22830;BME280;11581;51.250;6.778;2023-05-10T02:22:43;100428.66;;;16.25;75.03
22830;BME280;11581;51.250;6.778;2023-05-10T02:25:13;100383.50;;;15.85;75.18
22830;BME280;11581;51.250;6.778;2023-05-10T02:27:41;100443.38;;;16.29;75.16
22830;BME280;11581;51.250;6.778;2023-05-10T02:30:10;100430.16;;;16.13;75.30
22830;BME280;11581;51.250;6.778;2023-05-10T02:32:37;100446.06;;;16.29;75.32
22830;BME280;11581;51.250;6.778;2023-05-10T02:35:05;100401.56;;;15.91;75.13
22830;BME280;11581;51.250;6.778;2023-05-10T02:37:32;100417.03;;;16.03;75.52
22830;BME280;11581;51.250;6.778;2023-05-10T02:40:02;100450.41;;;16.30;75.46
22830;BME280;11581;51.250;6.778;2023-05-10T02:42:32;100452.91;;;16.31;75.69
22830;BME280;11581;51.250;6.778;2023-05-10T02:45:01;100451.91;;;16.32;75.61
22830;BME280;11581;51.250;6.778;2023-05-10T02:47:28;100381.09;;;15.90;75.73
22830;BME280;11581;51.250;6.778;2023-05-10T02:49:55;100411.34;;;16.13;75.62
22830;BME280;11581;51.250;6.778;2023-05-10T02:52:25;100454.03;;;16.37;75.89
22830;BME280;11581;51.250;6.778;2023-05-10T02:54:55;100450.13;;;16.39;75.89
22830;BME280;11581;51.250;6.778;2023-05-10T02:57:34;100455.31;;;16.41;75.76
22830;BME280;11581;51.250;6.778;2023-05-10T03:00:01;100442.50;;;16.43;75.41
22830;BME280;11581;51.250;6.778;2023-05-10T03:02:28;100449.56;;;16.44;75.29
22830;BME280;11581;51.250;6.778;2023-05-10T03:04:56;100380.56;;;16.01;75.32
22830;BME280;11581;51.250;6.778;2023-05-10T03:07:22;100373.72;;;15.98;75.25
22830;BME280;11581;51.250;6.778;2023-05-10T03:09:49;100456.44;;;16.46;75.30
22830;BME280;11581;51.250;6.778;2023-05-10T03:20:06;100385.38;;;16.05;75.24
22830;BME280;11581;51.250;6.778;2023-05-10T03:22:38;100429.69;;;16.24;75.10
22830;BME280;11581;51.250;6.778;2023-05-10T03:25:10;100507.09;;;16.43;75.48
22830;BME280;11581;51.250;6.778;2023-05-10T03:27:41;100460.97;;;16.46;75.20
22830;BME280;11581;51.250;6.778;2023-05-10T03:30:11;100451.59;;;16.42;75.17
22830;BME280;11581;51.250;6.778;2023-05-10T03:32:39;100470.72;;;16.47;75.31
22830;BME280;11581;51.250;6.778;2023-05-10T03:35:09;100473.41;;;16.47;75.33
22830;BME280;11581;51.250;6.778;2023-05-10T03:37:36;100468.03;;;16.47;75.09
22830;BME280;11581;51.250;6.778;2023-05-10T03:40:04;100476.09;;;16.47;75.13
22830;BME280;11581;51.250;6.778;2023-05-10T03:42:33;100395.06;;;16.00;75.06
22830;BME280;11581;51.250;6.778;2023-05-10T03:44:59;100480.66;;;16.46;75.08
22830;BME280;11581;51.250;6.778;2023-05-10T03:47:26;100475.47;;;16.45;75.03
22830;BME280;11581;51.250;6.778;2023-05-10T03:49:52;100454.78;;;16.31;75.17
22830;BME280;11581;51.250;6.778;2023-05-10T03:52:19;100481.88;;;16.44;75.09
22830;BME280;11581;51.250;6.778;2023-05-10T03:54:46;100406.84;;;15.99;75.29
22830;BME280;11581;51.250;6.778;2023-05-10T03:57:13;100481.88;;;16.44;75.30
22830;BME280;11581;51.250;6.778;2023-05-10T03:59:39;100470.09;;;16.30;75.31
22830;BME280;11581;51.250;6.778;2023-05-10T04:02:06;100487.25;;;16.44;75.38
22830;BME280;11581;51.250;6.778;2023-05-10T04:04:32;100488.25;;;16.43;75.41
22830;BME280;11581;51.250;6.778;2023-05-10T04:06:59;100489.25;;;16.42;75.41
22830;BME280;11581;51.250;6.778;2023-05-10T04:09:25;100485.56;;;16.43;75.32
22830;BME280;11581;51.250;6.778;2023-05-10T04:11:51;100491.94;;;16.42;75.56
22830;BME280;11581;51.250;6.778;2023-05-10T04:14:18;100498.84;;;16.44;75.50
22830;BME280;11581;51.250;6.778;2023-05-10T04:16:44;100489.63;;;16.39;75.63
22830;BME280;11581;51.250;6.778;2023-05-10T04:19:11;100492.63;;;16.44;75.66
22830;BME280;11581;51.250;6.778;2023-05-10T04:21:37;100482.59;;;16.38;75.74
22830;BME280;11581;51.250;6.778;2023-05-10T04:24:04;100480.00;;;16.44;75.86
22830;BME280;11581;51.250;6.778;2023-05-10T04:26:30;100465.38;;;16.32;75.74
22830;BME280;11581;51.250;6.778;2023-05-10T04:28:57;100492.25;;;16.47;75.81
22830;BME280;11581;51.250;6.778;2023-05-10T04:31:23;100486.03;;;16.46;75.79
22830;BME280;11581;51.250;6.778;2023-05-10T04:33:51;100492.25;;;16.47;75.79
22830;BME280;11581;51.250;6.778;2023-05-10T04:36:17;100469.53;;;16.35;75.54
22830;BME280;11581;51.250;6.778;2023-05-10T04:38:44;100422.84;;;16.07;75.62
22830;BME280;11581;51.250;6.778;2023-05-10T04:41:10;100435.94;;;16.10;75.77
22830;BME280;11581;51.250;6.778;2023-05-10T04:43:37;100487.69;;;16.47;76.01
22830;BME280;11581;51.250;6.778;2023-05-10T04:46:06;100488.53;;;16.48;76.02
22830;BME280;11581;51.250;6.778;2023-05-10T04:48:33;100463.50;;;16.33;76.01
22830;BME280;11581;51.250;6.778;2023-05-10T04:50:59;100438.38;;;16.05;76.04
22830;BME280;11581;51.250;6.778;2023-05-10T04:53:26;100502.25;;;16.53;76.13
22830;BME280;11581;51.250;6.778;2023-05-10T04:55:52;100496.88;;;16.53;76.09
22830;BME280;11581;51.250;6.778;2023-05-10T04:58:19;100498.53;;;16.54;76.24
22830;BME280;11581;51.250;6.778;2023-05-10T05:00:45;100484.72;;;16.42;76.39
22830;BME280;11581;51.250;6.778;2023-05-10T05:03:12;100482.31;;;16.47;76.50
22830;BME280;11581;51.250;6.778;2023-05-10T05:05:38;100503.16;;;16.60;76.38
22830;BME280;11581;51.250;6.778;2023-05-10T05:08:04;100508.97;;;16.63;76.37
22830;BME280;11581;51.250;6.778;2023-05-10T05:10:31;100446.44;;;16.26;76.31
22830;BME280;11581;51.250;6.778;2023-05-10T05:12:57;100510.91;;;16.69;76.33
22830;BME280;11581;51.250;6.778;2023-05-10T05:15:24;100496.09;;;16.59;76.56
22830;BME280;11581;51.250;6.778;2023-05-10T05:17:50;100490.09;;;16.57;76.54
22830;BME280;11581;51.250;6.778;2023-05-10T05:20:17;100480.53;;;16.54;76.50
22830;BME280;11581;51.250;6.778;2023-05-10T05:22:44;100537.38;;;16.87;76.55
22830;BME280;11581;51.250;6.778;2023-05-10T05:25:11;100514.19;;;16.86;76.18
22830;BME280;11581;51.250;6.778;2023-05-10T05:27:37;100527.13;;;16.97;76.14
22830;BME280;11581;51.250;6.778;2023-05-10T05:30:04;100478.78;;;16.68;75.50
22830;BME280;11581;51.250;6.778;2023-05-10T05:32:31;100531.72;;;17.03;75.38
22830;BME280;11581;51.250;6.778;2023-05-10T05:34:58;100496.75;;;16.82;74.98
22830;BME280;11581;51.250;6.778;2023-05-10T05:37:24;100464.81;;;16.58;74.88
22830;BME280;11581;51.250;6.778;2023-05-10T05:39:51;100538.19;;;17.08;74.78
22830;BME280;11581;51.250;6.778;2023-05-10T05:42:17;100542.38;;;17.11;74.37
22830;BME280;11581;51.250;6.778;2023-05-10T05:44:44;100522.13;;;16.94;73.80
22830;BME280;11581;51.250;6.778;2023-05-10T05:47:10;100485.44;;;16.72;73.67
22830;BME280;11581;51.250;6.778;2023-05-10T05:49:37;100554.16;;;17.10;73.56
22830;BME280;11581;51.250;6.778;2023-05-10T05:52:04;100542.97;;;17.06;73.39
22830;BME280;11581;51.250;6.778;2023-05-10T05:54:31;100499.56;;;16.74;73.45
22830;BME280;11581;51.250;6.778;2023-05-10T05:56:58;100423.00;;;16.20;73.42
22830;BME280;11581;51.250;6.778;2023-05-10T05:59:25;100558.03;;;17.01;73.43
22830;BME280;11581;51.250;6.778;2023-05-10T06:01:52;100558.03;;;17.01;73.54
22830;BME280;11581;51.250;6.778;2023-05-10T06:04:19;100500.72;;;16.65;73.67
22830;BME280;11581;51.250;6.778;2023-05-10T06:06:45;100513.16;;;16.66;73.77
22830;BME280;11581;51.250;6.778;2023-05-10T06:09:12;100569.22;;;16.98;73.58
22830;BME280;11581;51.250;6.778;2023-05-10T06:11:38;100573.09;;;16.95;73.56
22830;BME280;11581;51.250;6.778;2023-05-10T06:14:05;100583.88;;;16.95;73.59
22830;BME280;11581;51.250;6.778;2023-05-10T06:16:33;100575.19;;;16.93;73.69
22830;BME280;11581;51.250;6.778;2023-05-10T06:19:00;100565.16;;;16.87;73.82
22830;BME280;11581;51.250;6.778;2023-05-10T06:21:27;100583.88;;;16.95;73.89
22830;BME280;11581;51.250;6.778;2023-05-10T06:23:53;100564.31;;;16.87;74.09
22830;BME280;11581;51.250;6.778;2023-05-10T06:26:20;100582.69;;;16.98;73.75
22830;BME280;11581;51.250;6.778;2023-05-10T06:28:47;100590.56;;;16.99;73.49
22830;BME280;11581;51.250;6.778;2023-05-10T06:31:13;100559.97;;;16.86;73.28
22830;BME280;11581;51.250;6.778;2023-05-10T06:33:39;100553.69;;;16.79;73.35
22830;BME280;11581;51.250;6.778;2023-05-10T06:36:06;100589.72;;;16.99;73.46
22830;BME280;11581;51.250;6.778;2023-05-10T06:38:32;100593.88;;;17.01;73.47
22830;BME280;11581;51.250;6.778;2023-05-10T06:40:59;100594.94;;;17.00;73.63
22830;BME280;11581;51.250;6.778;2023-05-10T06:43:25;100586.38;;;16.97;73.54
22830;BME280;11581;51.250;6.778;2023-05-10T06:45:53;100599.94;;;17.03;73.54
22830;BME280;11581;51.250;6.778;2023-05-10T06:48:20;100602.44;;;17.05;73.18
22830;BME280;11581;51.250;6.778;2023-05-10T06:50:46;100600.75;;;17.04;73.28
22830;BME280;11581;51.250;6.778;2023-05-10T06:53:13;100570.09;;;16.84;73.01
22830;BME280;11581;51.250;6.778;2023-05-10T06:55:39;100612.56;;;17.03;73.17
22830;BME280;11581;51.250;6.778;2023-05-10T06:58:06;100459.13;;;16.11;73.30
22830;BME280;11581;51.250;6.778;2023-05-10T07:00:32;100596.25;;;16.90;73.49
22830;BME280;11581;51.250;6.778;2023-05-10T07:02:59;100592.28;;;16.86;73.36
22830;BME280;11581;51.250;6.778;2023-05-10T07:05:25;100621.28;;;17.05;73.89
22830;BME280;11581;51.250;6.778;2023-05-10T07:07:52;100599.59;;;16.92;74.10
22830;BME280;11581;51.250;6.778;2023-05-10T07:10:19;100578.81;;;16.86;74.23
22830;BME280;11581;51.250;6.778;2023-05-10T07:12:45;100620.97;;;17.14;74.44
22830;BME280;11581;51.250;6.778;2023-05-10T07:15:12;100613.97;;;17.20;74.56
22830;BME280;11581;51.250;6.778;2023-05-10T07:17:38;100614.03;;;17.26;74.74
22830;BME280;11581;51.250;6.778;2023-05-10T07:20:05;100578.41;;;17.10;74.75
22830;BME280;11581;51.250;6.778;2023-05-10T07:22:33;100448.34;;;16.46;74.41
22830;BME280;11581;51.250;6.778;2023-05-10T07:24:59;100611.31;;;17.47;74.48
22830;BME280;11581;51.250;6.778;2023-05-10T07:27:26;100622.03;;;17.62;74.22
22830;BME280;11581;51.250;6.778;2023-05-10T07:29:52;100616.09;;;17.73;73.88
22830;BME280;11581;51.250;6.778;2023-05-10T07:32:20;100613.25;;;17.81;73.43
22830;BME280;11581;51.250;6.778;2023-05-10T07:34:46;100612.84;;;17.84;73.24
22830;BME280;11581;51.250;6.778;2023-05-10T07:37:12;100542.72;;;17.50;73.02
22830;BME280;11581;51.250;6.778;2023-05-10T07:39:39;100614.22;;;18.01;72.95
22830;BME280;11581;51.250;6.778;2023-05-10T07:42:05;100517.22;;;17.52;72.66
22830;BME280;11581;51.250;6.778;2023-05-10T07:44:32;100617.22;;;18.19;72.11
22830;BME280;11581;51.250;6.778;2023-05-10T07:46:58;100628.47;;;18.23;71.62
22830;BME280;11581;51.250;6.778;2023-05-10T07:49:25;100617.63;;;18.16;71.18
22830;BME280;11581;51.250;6.778;2023-05-10T07:51:52;100638.03;;;18.25;70.95
22830;BME280;11581;51.250;6.778;2023-05-10T07:54:18;100625.50;;;18.11;71.04
22830;BME280;11581;51.250;6.778;2023-05-10T07:56:44;100638.88;;;18.26;70.73
22830;BME280;11581;51.250;6.778;2023-05-10T07:59:16;100646.31;;;18.24;69.80
22830;BME280;11581;51.250;6.778;2023-05-10T08:01:44;100635.53;;;18.24;70.36
22830;BME280;11581;51.250;6.778;2023-05-10T08:04:10;100629.59;;;18.07;70.17
22830;BME280;11581;51.250;6.778;2023-05-10T08:06:37;100602.16;;;17.97;70.38
22830;BME280;11581;51.250;6.778;2023-05-10T08:09:04;100642.16;;;18.21;70.31
22830;BME280;11581;51.250;6.778;2023-05-10T08:11:30;100642.16;;;18.21;70.33
22830;BME280;11581;51.250;6.778;2023-05-10T08:13:57;100615.50;;;18.05;70.69
22830;BME280;11581;51.250;6.778;2023-05-10T08:16:23;100636.75;;;18.21;70.93
22830;BME280;11581;51.250;6.778;2023-05-10T08:18:50;100646.59;;;18.35;71.49
22830;BME280;11581;51.250;6.778;2023-05-10T08:21:16;100652.09;;;18.48;72.10
22830;BME280;11581;51.250;6.778;2023-05-10T08:23:43;100627.38;;;18.51;72.59
22830;BME280;11581;51.250;6.778;2023-05-10T08:26:09;100655.78;;;18.88;72.55
22830;BME280;11581;51.250;6.778;2023-05-10T08:28:36;100658.75;;;19.12;72.00
22830;BME280;11581;51.250;6.778;2023-05-10T08:31:02;100657.16;;;19.37;71.30
22830;BME280;11581;51.250;6.778;2023-05-10T08:33:29;100666.34;;;19.62;70.80
22830;BME280;11581;51.250;6.778;2023-05-10T08:35:55;100650.09;;;19.82;70.20
22830;BME280;11581;51.250;6.778;2023-05-10T08:38:22;100659.22;;;20.14;69.01
22830;BME280;11581;51.250;6.778;2023-05-10T08:40:49;100665.03;;;20.37;67.79
22830;BME280;11581;51.250;6.778;2023-05-10T08:43:20;100664.75;;;20.58;67.24
22830;BME280;11581;51.250;6.778;2023-05-10T08:45:48;100632.06;;;20.53;65.12
22830;BME280;11581;51.250;6.778;2023-05-10T08:48:16;100673.97;;;20.88;65.21
22830;BME280;11581;51.250;6.778;2023-05-10T08:50:44;100684.41;;;20.97;62.93
22830;BME280;11581;51.250;6.778;2023-05-10T08:53:12;100679.38;;;21.01;63.16
22830;BME280;11581;51.250;6.778;2023-05-10T08:55:40;100686.47;;;21.02;62.84
22830;BME280;11581;51.250;6.778;2023-05-10T08:58:08;100671.91;;;20.83;61.97
22830;BME280;11581;51.250;6.778;2023-05-10T09:00:36;100692.75;;;20.89;60.92
22830;BME280;11581;51.250;6.778;2023-05-10T09:03:04;100675.78;;;20.63;60.27
22830;BME280;11581;51.250;6.778;2023-05-10T09:05:31;100675.81;;;20.50;60.52
22830;BME280;11581;51.250;6.778;2023-05-10T09:07:57;100647.13;;;20.23;61.15
22830;BME280;11581;51.250;6.778;2023-05-10T09:10:26;100683.78;;;20.32;62.05
22830;BME280;11581;51.250;6.778;2023-05-10T09:12:56;100689.41;;;20.30;61.46
22830;BME280;11581;51.250;6.778;2023-05-10T09:15:22;100705.41;;;20.38;63.02
22830;BME280;11581;51.250;6.778;2023-05-10T09:20:24;100605.94;;;19.94;63.22
22830;BME280;11581;51.250;6.778;2023-05-10T09:22:51;100710.38;;;20.67;62.66
22830;BME280;11581;51.250;6.778;2023-05-10T09:25:17;100702.41;;;20.79;62.30
22830;BME280;11581;51.250;6.778;2023-05-10T09:27:45;100711.94;;;20.88;61.07
22830;BME280;11581;51.250;6.778;2023-05-10T09:32:50;100705.69;;;20.94;60.05
22830;BME280;11581;51.250;6.778;2023-05-10T09:35:21;100562.63;;;19.94;57.86
22830;BME280;11581;51.250;6.778;2023-05-10T09:37:52;100721.13;;;20.87;57.83
22830;BME280;11581;51.250;6.778;2023-05-10T09:40:22;100718.25;;;20.82;59.58
22830;BME280;11581;51.250;6.778;2023-05-10T09:42:53;100717.81;;;20.78;59.19
22830;BME280;11581;51.250;6.778;2023-05-10T09:45:21;100720.13;;;20.75;61.04
22830;BME280;11581;51.250;6.778;2023-05-10T09:47:47;100728.63;;;20.85;61.50
22830;BME280;11581;51.250;6.778;2023-05-10T09:50:14;100700.53;;;20.73;60.80
22830;BME280;11581;51.250;6.778;2023-05-10T09:52:57;100644.97;;;20.51;57.99
22830;BME280;11581;51.250;6.778;2023-05-10T09:55:46;100733.09;;;21.17;57.97
22830;BME280;11581;51.250;6.778;2023-05-10T09:58:14;100730.09;;;21.31;59.99
22830;BME280;11581;51.250;6.778;2023-05-10T10:00:43;100730.44;;;21.41;58.89
22830;BME280;11581;51.250;6.778;2023-05-10T10:03:18;100725.63;;;21.50;56.61
22830;BME280;11581;51.250;6.778;2023-05-10T10:05:45;100734.72;;;21.62;59.26
22830;BME280;11581;51.250;6.778;2023-05-10T10:08:13;100720.25;;;21.74;59.23
22830;BME280;11581;51.250;6.778;2023-05-10T10:10:40;100733.50;;;21.89;58.59
22830;BME280;11581;51.250;6.778;2023-05-10T10:13:07;100728.41;;;21.99;57.62
22830;BME280;11581;51.250;6.778;2023-05-10T10:15:34;100676.84;;;21.68;56.82
22830;BME280;11581;51.250;6.778;2023-05-10T10:18:01;100721.34;;;21.98;57.17
22830;BME280;11581;51.250;6.778;2023-05-10T10:20:29;100733.00;;;21.98;56.17
22830;BME280;11581;51.250;6.778;2023-05-10T10:22:55;100716.25;;;21.77;55.93
22830;BME280;11581;51.250;6.778;2023-05-10T10:25:22;100743.38;;;21.83;55.75
22830;BME280;11581;51.250;6.778;2023-05-10T10:30:46;100753.34;;;21.52;54.40
22830;BME280;11581;51.250;6.778;2023-05-10T10:36:33;100753.56;;;21.19;56.90
22830;BME280;11581;51.250;6.778;2023-05-10T10:39:09;100746.50;;;21.05;55.86
22830;BME280;11581;51.250;6.778;2023-05-10T10:41:38;100752.41;;;20.96;57.74
22830;BME280;11581;51.250;6.778;2023-05-10T10:49:51;100755.56;;;20.80;56.99
22830;BME280;11581;51.250;6.778;2023-05-10T10:52:26;100754.50;;;20.81;57.01
22830;BME280;11581;51.250;6.778;2023-05-10T11:00:29;100751.91;;;21.12;57.13
22830;BME280;11581;51.250;6.778;2023-05-10T11:07:57;100735.06;;;21.41;57.48
22830;BME280;11581;51.250;6.778;2023-05-10T11:10:25;100755.63;;;21.55;57.75
22830;BME280;11581;51.250;6.778;2023-05-10T11:13:10;100752.06;;;21.61;54.94
22830;BME280;11581;51.250;6.778;2023-05-10T11:15:38;100761.25;;;21.60;56.15
22830;BME280;11581;51.250;6.778;2023-05-10T11:18:26;100616.19;;;20.63;55.00
22830;BME280;11581;51.250;6.778;2023-05-10T11:21:01;100710.97;;;21.20;54.59
22830;BME280;11581;51.250;6.778;2023-05-10T11:23:31;100764.28;;;21.39;56.39
22830;BME280;11581;51.250;6.778;2023-05-10T11:25:59;100763.75;;;21.24;56.65
22830;BME280;11581;51.250;6.778;2023-05-10T11:28:27;100767.72;;;21.21;56.67
22830;BME280;11581;51.250;6.778;2023-05-10T11:30:54;100773.19;;;21.15;56.71
22830;BME280;11581;51.250;6.778;2023-05-10T11:33:20;100772.97;;;21.10;57.02
22830;BME280;11581;51.250;6.778;2023-05-10T11:35:47;100742.38;;;20.90;56.96
22830;BME280;11581;51.250;6.778;2023-05-10T11:38:14;100655.03;;;20.31;57.46
22830;BME280;11581;51.250;6.778;2023-05-10T11:40:40;100633.00;;;20.21;57.65
22830;BME280;11581;51.250;6.778;2023-05-10T11:43:09;100774.03;;;21.09;56.78
22830;BME280;11581;51.250;6.778;2023-05-10T11:45:36;100775.31;;;21.06;57.34
22830;BME280;11581;51.250;6.778;2023-05-10T11:48:03;100794.88;;;21.15;57.37
22830;BME280;11581;51.250;6.778;2023-05-10T11:50:29;100780.25;;;21.16;57.23
22830;BME280;11581;51.250;6.778;2023-05-10T11:52:56;100780.69;;;21.13;57.35
22830;BME280;11581;51.250;6.778;2023-05-10T11:55:24;100789.63;;;21.20;57.04
22830;BME280;11581;51.250;6.778;2023-05-10T11:57:54;100787.31;;;21.23;55.27
22830;BME280;11581;51.250;6.778;2023-05-10T12:00:21;100739.69;;;20.96;57.30
22830;BME280;11581;51.250;6.778;2023-05-10T12:02:48;100802.03;;;21.40;57.23
22830;BME280;11581;51.250;6.778;2023-05-10T12:05:15;100782.16;;;21.53;57.77
22830;BME280;11581;51.250;6.778;2023-05-10T12:07:41;100770.84;;;21.56;58.24
22830;BME280;11581;51.250;6.778;2023-05-10T12:10:13;100784.47;;;21.87;57.82
22830;BME280;11581;51.250;6.778;2023-05-10T12:12:45;100788.69;;;22.08;57.25
22830;BME280;11581;51.250;6.778;2023-05-10T12:15:18;100725.50;;;21.94;55.02
22830;BME280;11581;51.250;6.778;2023-05-10T12:17:45;100786.94;;;22.44;57.00
22830;BME280;11581;51.250;6.778;2023-05-10T12:20:17;100767.03;;;22.50;54.15
22830;BME280;11581;51.250;6.778;2023-05-10T12:22:45;100778.69;;;22.75;55.06
22830;BME280;11581;51.250;6.778;2023-05-10T12:25:12;100783.91;;;22.95;54.77
22830;BME280;11581;51.250;6.778;2023-05-10T12:27:38;100724.31;;;22.75;53.66
22830;BME280;11581;51.250;6.778;2023-05-10T12:30:05;100781.78;;;23.15;52.94
22830;BME280;11581;51.250;6.778;2023-05-10T12:32:43;100786.31;;;23.21;50.67
22830;BME280;11581;51.250;6.778;2023-05-10T12:35:10;100784.59;;;23.26;52.80
22830;BME280;11581;51.250;6.778;2023-05-10T12:37:36;100753.22;;;23.06;52.73
22830;BME280;11581;51.250;6.778;2023-05-10T12:40:09;100784.88;;;23.36;50.29
22830;BME280;11581;51.250;6.778;2023-05-10T12:42:37;100787.50;;;23.43;52.19
22830;BME280;11581;51.250;6.778;2023-05-10T12:45:05;100736.38;;;23.15;51.65
22830;BME280;11581;51.250;6.778;2023-05-10T12:47:33;100790.34;;;23.48;51.73
22830;BME280;11581;51.250;6.778;2023-05-10T12:50:00;100796.63;;;23.48;51.48
22830;BME280;11581;51.250;6.778;2023-05-10T12:52:28;100784.88;;;23.36;51.80
22830;BME280;11581;51.250;6.778;2023-05-10T12:54:55;100798.53;;;23.48;51.64
22830;BME280;11581;51.250;6.778;2023-05-10T12:57:21;100794.53;;;23.50;51.69
22830;BME280;11581;51.250;6.778;2023-05-10T12:59:48;100799.06;;;23.56;51.93
22830;BME280;11581;51.250;6.778;2023-05-10T13:02:15;100780.00;;;23.56;52.04
22830;BME280;11581;51.250;6.778;2023-05-10T13:04:44;100795.06;;;23.70;51.82
22830;BME280;11581;51.250;6.778;2023-05-10T13:07:11;100785.59;;;23.73;51.97
22830;BME280;11581;51.250;6.778;2023-05-10T13:09:38;100800.22;;;23.90;51.04
22830;BME280;11581;51.250;6.778;2023-05-10T13:12:04;100807.50;;;24.08;50.61
22830;BME280;11581;51.250;6.778;2023-05-10T13:14:31;100807.78;;;24.18;50.33
22830;BME280;11581;51.250;6.778;2023-05-10T13:16:57;100794.75;;;24.20;49.94
22830;BME280;11581;51.250;6.778;2023-05-10T13:19:25;100810.88;;;24.33;49.34
22830;BME280;11581;51.250;6.778;2023-05-10T13:21:52;100784.56;;;24.27;50.19
22830;BME280;11581;51.250;6.778;2023-05-10T13:24:18;100805.66;;;24.54;49.60
22830;BME280;11581;51.250;6.778;2023-05-10T13:26:45;100809.50;;;24.65;49.87
22830;BME280;11581;51.250;6.778;2023-05-10T13:29:11;100782.44;;;24.63;49.16
22830;BME280;11581;51.250;6.778;2023-05-10T13:31:38;100804.50;;;24.85;48.45
22830;BME280;11581;51.250;6.778;2023-05-10T13:34:04;100807.34;;;24.90;48.05
22830;BME280;11581;51.250;6.778;2023-05-10T13:36:31;100807.13;;;24.80;47.49
22830;BME280;11581;51.250;6.778;2023-05-10T13:38:57;100802.84;;;24.84;47.15
22830;BME280;11581;51.250;6.778;2023-05-10T13:41:26;100793.28;;;24.70;46.99